Time;durP1;ratioP1;P1;durP2;ratioP2;P2;SDS_P1;SDS_P2;PMS_P1;PMS_P2;Temp;Humidity;BMP_temperature;BMP_pressure;BME280_temperature;BME280_humidity;BME280_pressure;Samples;Min_cycle;Max_cycle;Signal;HPM_P1;HPM_P2
2022/02/18 00:00:14;;;;;;;63.08;11.82;;;12.80;90.40;;;;;;5018758;28;20535;-61
2022/02/18 00:02:40;;;;;;;44.10;9.85;;;12.90;90.50;;;;;;5000390;28;20034;-64
2022/02/18 00:05:06;;;;;;;43.63;10.18;;;12.80;90.50;;;;;;5024702;28;20159;-61
2022/02/18 00:07:31;;;;;;;46.95;9.40;;;12.80;90.40;;;;;;5025094;28;20036;-62
2022/02/18 00:09:57;;;;;;;46.30;8.77;;;12.80;90.30;;;;;;5023114;28;20075;-63
2022/02/18 00:12:22;;;;;;;56.58;8.88;;;12.80;90.30;;;;;;5005481;28;20025;-63
2022/02/18 00:14:48;;;;;;;39.28;8.50;;;12.80;90.30;;;;;;5022100;28;20477;-62
2022/02/18 00:17:13;;;;;;;51.30;9.73;;;12.80;90.20;;;;;;5025064;28;20531;-61
2022/02/18 00:19:39;;;;;;;41.65;9.05;;;12.80;90.30;;;;;;5025569;28;20027;-64
2022/02/18 00:22:05;;;;;;;53.80;9.48;;;12.80;90.40;;;;;;5024972;28;20049;-63
2022/02/18 00:24:30;;;;;;;40.28;9.85;;;12.80;90.50;;;;;;5022639;28;20134;-64
2022/02/18 00:26:56;;;;;;;43.35;9.13;;;12.70;90.50;;;;;;5022965;28;20127;-60
2022/02/18 00:29:21;;;;;;;40.85;8.55;;;12.70;90.50;;;;;;5024107;28;20102;-61
2022/02/18 00:31:47;;;;;;;37.75;8.25;;;12.70;90.50;;;;;;5023954;28;20371;-61
2022/02/18 00:34:12;;;;;;;40.25;8.05;;;12.70;90.40;;;;;;5025166;28;20053;-63
2022/02/18 00:36:38;;;;;;;48.45;8.40;;;12.70;90.30;;;;;;5022616;28;20135;-59
2022/02/18 00:39:04;;;;;;;40.90;8.40;;;12.80;90.30;;;;;;5022078;28;20045;-62
2022/02/18 00:41:29;;;;;;;43.95;8.27;;;12.70;90.30;;;;;;5006929;28;20030;-62
2022/02/18 00:43:55;;;;;;;32.20;7.53;;;12.70;90.40;;;;;;5026818;28;20116;-63
2022/02/18 00:46:20;;;;;;;41.72;8.65;;;12.70;90.30;;;;;;5025458;28;20029;-61
2022/02/18 00:48:46;;;;;;;41.53;9.18;;;12.70;90.30;;;;;;5022159;28;20037;-61
2022/02/18 00:51:11;;;;;;;29.80;6.97;;;12.60;90.50;;;;;;5024127;28;20108;-64
2022/02/18 00:53:37;;;;;;;37.92;6.75;;;12.60;90.40;;;;;;5022239;28;20073;-61
2022/02/18 00:56:02;;;;;;;36.40;8.85;;;12.70;90.50;;;;;;5023216;28;20116;-60
2022/02/18 00:58:28;;;;;;;29.83;7.13;;;12.60;90.40;;;;;;5024881;28;20029;-61
2022/02/18 01:00:53;;;;;;;31.08;7.55;;;12.60;90.40;;;;;;5024062;28;20232;-62
2022/02/18 01:03:19;;;;;;;36.58;7.05;;;12.60;90.50;;;;;;5023195;28;20029;-61
2022/02/18 01:05:44;;;;;;;39.17;8.43;;;12.60;90.50;;;;;;5022261;28;20068;-60
2022/02/18 01:08:10;;;;;;;30.55;6.97;;;12.60;90.50;;;;;;5022481;28;20029;-61
2022/02/18 01:10:35;;;;;;;40.50;7.50;;;12.60;90.50;;;;;;5023709;28;20033;-62
2022/02/18 01:13:01;;;;;;;35.10;8.05;;;12.60;90.50;;;;;;5025170;28;20103;-59
2022/02/18 01:15:26;;;;;;;33.90;7.32;;;12.50;90.50;;;;;;5022999;28;20033;-63
2022/02/18 01:17:52;;;;;;;24.15;7.30;;;12.50;90.60;;;;;;5020906;28;20043;-64
2022/02/18 01:20:17;;;;;;;30.58;7.53;;;12.50;90.70;;;;;;5023569;28;20048;-61
2022/02/18 01:22:43;;;;;;;31.20;7.10;;;12.50;90.70;;;;;;5008286;28;20040;-63
2022/02/18 01:25:09;;;;;;;37.85;7.80;;;12.50;90.70;;;;;;5025624;28;20041;-62
2022/02/18 01:27:35;;;;;;;28.67;8.10;;;12.50;90.70;;;;;;5023380;28;20026;-64
2022/02/18 01:30:00;;;;;;;31.33;9.43;;;12.50;90.70;;;;;;5023269;28;20072;-61
2022/02/18 01:32:26;;;;;;;31.55;8.57;;;12.50;90.70;;;;;;5021459;28;20030;-62
2022/02/18 01:34:51;;;;;;;43.83;8.25;;;12.50;90.70;;;;;;5023043;28;20049;-63
2022/02/18 01:37:17;;;;;;;38.58;8.00;;;12.50;90.70;;;;;;5022586;28;20037;-63
2022/02/18 01:39:42;;;;;;;41.20;8.77;;;12.50;90.70;;;;;;5025606;28;20036;-62
2022/02/18 01:42:08;;;;;;;39.80;8.52;;;12.40;90.80;;;;;;5025114;28;20044;-61
2022/02/18 01:44:42;;;;;;;42.78;10.90;;;12.50;90.80;;;;;;5004763;28;20040;-60
2022/02/18 01:47:12;;;;;;;41.25;10.70;;;12.40;90.80;;;;;;5004934;28;20041;-62
2022/02/18 01:49:38;;;;;;;34.45;9.50;;;12.40;90.80;;;;;;5022973;28;20481;-62
2022/02/18 01:52:03;;;;;;;33.60;9.48;;;12.40;90.90;;;;;;5025793;28;20041;-62
2022/02/18 01:54:29;;;;;;;34.78;8.55;;;12.40;90.90;;;;;;5023477;28;20049;-60
2022/02/18 01:56:54;;;;;;;35.42;8.82;;;12.40;91.00;;;;;;5020584;28;20156;-60
2022/02/18 01:59:20;;;;;;;28.55;8.43;;;12.40;91.00;;;;;;5022827;28;20436;-62
2022/02/18 02:01:45;;;;;;;31.40;8.18;;;12.40;90.90;;;;;;5022460;28;20034;-64
2022/02/18 02:04:11;;;;;;;29.60;8.40;;;12.40;90.90;;;;;;5023299;28;20056;-60
2022/02/18 02:06:36;;;;;;;25.38;8.23;;;12.30;90.90;;;;;;5005083;28;20148;-63
2022/02/18 02:09:03;;;;;;;28.83;8.73;;;12.30;90.90;;;;;;5021344;28;20191;-63
2022/02/18 02:11:28;;;;;;;27.33;8.00;;;12.30;91.00;;;;;;5020806;28;20029;-61
2022/02/18 02:13:54;;;;;;;32.17;8.13;;;12.30;91.00;;;;;;5020772;28;20130;-63
2022/02/18 02:16:20;;;;;;;42.05;9.40;;;12.30;91.10;;;;;;5024442;28;20115;-65
2022/02/18 02:18:45;;;;;;;26.00;7.63;;;12.30;91.10;;;;;;5005687;28;20387;-61
2022/02/18 02:21:12;;;;;;;29.00;7.50;;;12.30;91.10;;;;;;5004044;28;20091;-62
2022/02/18 02:23:37;;;;;;;28.52;7.30;;;12.30;91.10;;;;;;5022225;28;20014;-61
2022/02/18 02:26:03;;;;;;;29.27;7.90;;;12.30;91.10;;;;;;5022972;28;20057;-60
2022/02/18 02:28:28;;;;;;;25.05;7.38;;;12.30;91.20;;;;;;5024400;28;20083;-61
2022/02/18 02:30:54;;;;;;;28.88;7.82;;;12.30;91.30;;;;;;5023370;28;20681;-63
2022/02/18 02:33:19;;;;;;;25.45;6.55;;;12.30;91.40;;;;;;5022296;28;20037;-61
2022/02/18 02:35:45;;;;;;;23.45;7.15;;;12.30;91.40;;;;;;5021490;28;20060;-63
2022/02/18 02:38:10;;;;;;;21.60;6.57;;;12.20;91.30;;;;;;5018090;28;20441;-61
2022/02/18 02:40:36;;;;;;;23.67;6.95;;;12.20;91.30;;;;;;5022896;28;20025;-61
2022/02/18 02:43:01;;;;;;;25.45;6.00;;;12.20;91.40;;;;;;5023390;28;20043;-61
2022/02/18 02:45:27;;;;;;;27.63;6.50;;;12.20;91.40;;;;;;5020076;28;20056;-59
2022/02/18 02:47:53;;;;;;;24.58;6.80;;;12.20;91.40;;;;;;5018017;28;20612;-61
2022/02/18 02:50:19;;;;;;;26.33;7.53;;;12.20;91.50;;;;;;5019857;28;20029;-62
2022/02/18 02:52:44;;;;;;;26.67;8.18;;;12.20;91.50;;;;;;5017908;28;20072;-63
2022/02/18 02:55:13;;;;;;;25.25;8.18;;;12.20;91.70;;;;;;5022058;28;20148;-61
2022/02/18 02:57:40;;;;;;;23.50;7.75;;;12.20;91.70;;;;;;5020880;28;20017;-61
2022/02/18 03:00:06;;;;;;;26.33;7.78;;;12.20;91.80;;;;;;5021732;28;20019;-62
2022/02/18 03:02:31;;;;;;;21.67;7.53;;;12.20;91.80;;;;;;5019965;28;20112;-62
2022/02/18 03:04:57;;;;;;;30.05;8.13;;;12.20;92.00;;;;;;5019450;28;20124;-62
2022/02/18 03:07:22;;;;;;;26.90;7.38;;;12.20;92.00;;;;;;5018993;28;20042;-61
2022/02/18 03:09:48;;;;;;;25.67;7.93;;;12.20;92.00;;;;;;5023484;28;20036;-62
2022/02/18 03:12:13;;;;;;;20.55;6.47;;;12.20;92.00;;;;;;5020470;28;20358;-61
2022/02/18 03:14:39;;;;;;;31.83;7.63;;;12.20;91.90;;;;;;5019611;28;20033;-60
2022/02/18 03:17:04;;;;;;;27.83;8.07;;;12.20;91.80;;;;;;5018456;28;20057;-59
2022/02/18 03:19:30;;;;;;;25.77;8.25;;;12.20;91.80;;;;;;5019731;28;20031;-63
2022/02/18 03:21:56;;;;;;;27.33;7.10;;;12.20;91.80;;;;;;5021180;28;20504;-59
2022/02/18 03:24:22;;;;;;;23.67;6.75;;;12.20;91.80;;;;;;5021676;28;20531;-60
2022/02/18 03:26:48;;;;;;;25.20;7.90;;;12.20;91.80;;;;;;5019302;28;20046;-60
2022/02/18 03:29:14;;;;;;;25.83;7.78;;;12.20;91.80;;;;;;5019081;28;20060;-60
2022/02/18 03:31:39;;;;;;;22.83;7.40;;;12.10;91.80;;;;;;5018617;28;20052;-59
2022/02/18 03:34:05;;;;;;;27.67;8.38;;;12.10;91.80;;;;;;5020841;28;20033;-62
2022/02/18 03:36:30;;;;;;;23.77;8.35;;;12.10;91.90;;;;;;5020244;28;20076;-60
2022/02/18 03:38:56;;;;;;;21.67;7.07;;;12.10;91.90;;;;;;5025589;28;20327;-63
2022/02/18 03:41:22;;;;;;;21.40;6.97;;;12.10;91.90;;;;;;5026150;28;20025;-63
2022/02/18 03:43:47;;;;;;;19.90;6.47;;;12.10;91.80;;;;;;5026358;28;20038;-63
2022/02/18 03:46:13;;;;;;;23.50;7.60;;;12.10;91.80;;;;;;5027336;28;20022;-63
2022/02/18 03:48:38;;;;;;;23.75;8.25;;;12.10;91.80;;;;;;5010208;28;20136;-60
2022/02/18 03:51:04;;;;;;;20.75;8.20;;;12.00;91.80;;;;;;5027638;28;20041;-62
2022/02/18 03:53:29;;;;;;;23.33;7.18;;;12.00;91.80;;;;;;5007334;28;20064;-58
2022/02/18 03:55:59;;;;;;;23.35;6.43;;;12.00;91.70;;;;;;5025847;28;20049;-61
2022/02/18 03:58:25;;;;;;;22.65;7.25;;;12.00;91.80;;;;;;5027291;28;20056;-62
2022/02/18 04:00:51;;;;;;;20.45;7.18;;;12.00;91.70;;;;;;5027135;28;20037;-62
2022/02/18 04:03:16;;;;;;;27.65;7.45;;;12.00;91.60;;;;;;5027344;28;20026;-64
2022/02/18 04:05:42;;;;;;;22.23;7.45;;;12.00;91.70;;;;;;5023944;28;20545;-65
2022/02/18 04:08:07;;;;;;;20.63;6.75;;;12.00;91.70;;;;;;5023201;28;20029;-61
2022/02/18 04:10:33;;;;;;;18.25;6.45;;;12.00;91.70;;;;;;5025884;28;20041;-62
2022/02/18 04:12:58;;;;;;;18.23;6.47;;;11.90;91.70;;;;;;5028907;28;20120;-61
2022/02/18 04:15:24;;;;;;;21.30;6.82;;;11.90;91.70;;;;;;5028824;28;20037;-60
2022/02/18 04:17:49;;;;;;;20.90;6.82;;;12.00;91.60;;;;;;5026233;28;20022;-62
2022/02/18 04:20:15;;;;;;;21.88;6.85;;;12.00;91.50;;;;;;5026811;28;20338;-62
2022/02/18 04:22:40;;;;;;;21.05;6.38;;;11.90;91.40;;;;;;5023861;28;20041;-64
2022/02/18 04:25:07;;;;;;;19.55;6.18;;;11.90;91.40;;;;;;5027115;28;20029;-61
2022/02/18 04:27:32;;;;;;;24.58;6.40;;;11.90;91.30;;;;;;5029026;28;20207;-60
2022/02/18 04:29:58;;;;;;;27.20;6.60;;;11.90;91.30;;;;;;5025814;28;20465;-62
2022/02/18 04:32:23;;;;;;;28.48;7.95;;;11.90;91.30;;;;;;5024089;28;20037;-61
2022/02/18 04:34:49;;;;;;;26.33;7.50;;;11.90;91.30;;;;;;5025698;28;20029;-61
2022/02/18 04:37:14;;;;;;;18.80;6.93;;;11.80;91.30;;;;;;5023428;28;20703;-60
2022/02/18 04:39:40;;;;;;;25.90;7.32;;;11.80;91.30;;;;;;5026391;28;20052;-64
2022/02/18 04:42:05;;;;;;;22.27;5.97;;;11.80;91.20;;;;;;5027541;28;20085;-61
2022/02/18 04:44:31;;;;;;;19.00;5.95;;;11.80;91.20;;;;;;5027708;28;20067;-62
2022/02/18 04:46:56;;;;;;;19.98;6.60;;;11.80;91.20;;;;;;5024997;28;20044;-62
2022/02/18 04:49:22;;;;;;;15.85;5.93;;;11.80;91.30;;;;;;5023626;28;20044;-60
2022/02/18 04:51:49;;;;;;;16.42;5.72;;;11.80;91.30;;;;;;5021935;28;20434;-61
2022/02/18 04:54:14;;;;;;;13.63;6.22;;;11.80;91.30;;;;;;5023736;28;20571;-61
2022/02/18 04:56:40;;;;;;;21.48;7.13;;;11.80;91.40;;;;;;5021704;28;20196;-64
2022/02/18 04:59:05;;;;;;;25.85;7.00;;;11.80;91.40;;;;;;5022015;28;20037;-63
2022/02/18 05:01:31;;;;;;;18.70;6.68;;;11.80;91.50;;;;;;5022712;28;20117;-63
2022/02/18 05:03:56;;;;;;;16.90;6.03;;;11.80;91.50;;;;;;5022890;28;20424;-61
2022/02/18 05:06:22;;;;;;;19.55;6.20;;;11.80;91.50;;;;;;5024343;28;20411;-60
2022/02/18 05:08:47;;;;;;;20.77;6.95;;;11.80;91.50;;;;;;5020219;28;20303;-63
2022/02/18 05:11:13;;;;;;;20.15;5.82;;;11.70;91.50;;;;;;5018778;28;20404;-62
2022/02/18 05:13:39;;;;;;;15.13;5.85;;;11.80;91.50;;;;;;5019805;28;20068;-64
2022/02/18 05:16:04;;;;;;;19.20;5.82;;;11.70;91.40;;;;;;5021378;28;20064;-61
2022/02/18 05:18:30;;;;;;;12.90;4.72;;;11.70;91.40;;;;;;5022939;28;20041;-62
2022/02/18 05:20:56;;;;;;;18.52;5.45;;;11.70;91.50;;;;;;5023030;28;20390;-61
2022/02/18 05:23:21;;;;;;;19.95;5.85;;;11.70;91.40;;;;;;5003303;28;20029;-61
2022/02/18 05:25:47;;;;;;;17.90;5.43;;;11.70;91.40;;;;;;5022370;28;20037;-61
2022/02/18 05:28:14;;;;;;;18.00;5.80;;;11.70;91.50;;;;;;5022204;28;20112;-61
2022/02/18 05:30:40;;;;;;;25.90;6.50;;;11.70;91.40;;;;;;5005921;28;20065;-60
2022/02/18 05:33:05;;;;;;;24.77;6.28;;;11.70;91.40;;;;;;5022835;28;20033;-60
2022/02/18 05:35:31;;;;;;;35.03;6.50;;;11.70;91.40;;;;;;5022420;28;20041;-63
2022/02/18 05:37:56;;;;;;;171.50;14.13;;;11.70;91.40;;;;;;5021033;28;20045;-62
2022/02/18 05:40:22;;;;;;;153.45;15.90;;;11.70;91.40;;;;;;5022074;28;20049;-63
2022/02/18 05:42:47;;;;;;;177.10;17.48;;;11.70;91.50;;;;;;5023362;28;20113;-63
2022/02/18 05:45:13;;;;;;;152.57;18.20;;;11.70;91.40;;;;;;5023874;28;20092;-62
2022/02/18 05:47:38;;;;;;;125.15;12.13;;;11.70;91.40;;;;;;5005823;28;20035;-59
2022/02/18 05:50:10;;;;;;;96.43;11.35;;;11.70;91.80;;;;;;5021095;28;20037;-61
2022/02/18 05:52:36;;;;;;;99.95;13.55;;;11.60;91.50;;;;;;5018883;28;20028;-61
2022/02/18 05:55:03;;;;;;;80.65;13.40;;;11.60;91.50;;;;;;5021837;28;20221;-63
2022/02/18 05:57:28;;;;;;;113.03;13.27;;;11.60;91.50;;;;;;5024289;28;20424;-60
2022/02/18 05:59:54;;;;;;;314.00;23.75;;;11.60;91.50;;;;;;5005895;28;20025;-61
2022/02/18 06:02:19;;;;;;;183.07;17.90;;;11.60;91.80;;;;;;5021978;28;20396;-61
2022/02/18 06:04:45;;;;;;;209.77;19.75;;;11.70;91.40;;;;;;5022578;28;20024;-61
2022/02/18 06:07:10;;;;;;;182.75;18.88;;;11.70;91.40;;;;;;5020264;28;20356;-62
2022/02/18 06:09:36;;;;;;;179.93;18.50;;;11.70;91.30;;;;;;5020849;28;20017;-59
2022/02/18 06:12:01;;;;;;;177.88;18.13;;;11.60;91.30;;;;;;5022477;28;20037;-59
2022/02/18 06:14:27;;;;;;;159.35;18.13;;;11.70;91.30;;;;;;5022499;28;20018;-59
2022/02/18 06:16:52;;;;;;;124.68;13.80;;;11.60;91.40;;;;;;5020621;28;20493;-61
2022/02/18 06:19:18;;;;;;;108.55;13.90;;;11.60;91.40;;;;;;5021568;28;20058;-59
2022/02/18 06:21:43;;;;;;;120.03;13.60;;;11.60;91.30;;;;;;5019958;28;20139;-61
2022/02/18 06:24:09;;;;;;;119.70;13.57;;;11.60;91.30;;;;;;5020693;28;20053;-61
2022/02/18 06:26:35;;;;;;;108.22;13.57;;;11.60;91.30;;;;;;5005550;28;20041;-62
2022/02/18 06:29:00;;;;;;;122.03;13.85;;;11.60;91.30;;;;;;5019934;28;20132;-60
2022/02/18 06:31:26;;;;;;;114.72;12.95;;;11.60;91.30;;;;;;5017428;28;20054;-58
2022/02/18 06:33:51;;;;;;;100.75;12.50;;;11.60;91.30;;;;;;5001987;28;20111;-63
2022/02/18 06:36:17;;;;;;;86.05;10.23;;;11.60;91.30;;;;;;5022102;28;20041;-59
2022/02/18 06:38:44;;;;;;;96.68;12.50;;;11.60;91.40;;;;;;5021622;28;20112;-63
2022/02/18 06:41:10;;;;;;;104.72;11.80;;;11.60;91.40;;;;;;5019940;28;20140;-61
2022/02/18 06:43:36;;;;;;;98.22;12.57;;;11.60;91.40;;;;;;5016530;28;20108;-63
2022/02/18 06:46:01;;;;;;;75.40;11.02;;;11.60;91.40;;;;;;5001756;28;20042;-61
2022/02/18 06:48:27;;;;;;;126.82;13.30;;;11.60;91.40;;;;;;5022234;28;20042;-60
2022/02/18 06:50:52;;;;;;;76.68;11.00;;;11.60;91.50;;;;;;5021464;28;20147;-62
2022/02/18 06:53:18;;;;;;;72.10;10.70;;;11.60;91.50;;;;;;5018977;28;20450;-63
2022/02/18 06:55:43;;;;;;;77.70;10.68;;;11.60;91.50;;;;;;5002831;28;20045;-60
2022/02/18 06:58:09;;;;;;;79.85;10.07;;;11.60;91.50;;;;;;5021310;28;20030;-59
2022/02/18 07:00:35;;;;;;;77.28;11.63;;;11.60;91.50;;;;;;5022672;28;20148;-62
2022/02/18 07:03:01;;;;;;;85.05;10.20;;;11.60;91.50;;;;;;5004505;28;20516;-59
2022/02/18 07:05:26;;;;;;;86.13;11.30;;;11.50;91.40;;;;;;5007452;28;20025;-63
2022/02/18 07:07:52;;;;;;;69.90;9.13;;;11.50;91.40;;;;;;5022426;28;20135;-60
2022/02/18 07:10:17;;;;;;;74.90;9.50;;;11.50;91.40;;;;;;5022901;28;20018;-60
2022/02/18 07:12:43;;;;;;;85.40;11.07;;;11.50;91.40;;;;;;5021946;28;20119;-63
2022/02/18 07:15:09;;;;;;;73.95;10.48;;;11.50;91.30;;;;;;5022240;28;20464;-59
2022/02/18 07:17:35;;;;;;;61.35;9.10;;;11.50;91.30;;;;;;5003985;28;20049;-60
2022/02/18 07:20:02;;;;;;;50.90;8.63;;;11.50;91.20;;;;;;5017197;28;20563;-60
2022/02/18 07:22:27;;;;;;;47.33;8.27;;;11.60;91.10;;;;;;5002972;28;20057;-63
2022/02/18 07:24:53;;;;;;;51.53;8.63;;;11.60;91.10;;;;;;5015946;28;20032;-62
2022/02/18 07:27:19;;;;;;;54.88;8.35;;;11.60;91.10;;;;;;5015890;28;20049;-62
2022/02/18 07:29:44;;;;;;;68.72;8.73;;;11.60;91.10;;;;;;5019893;28;20120;-63
2022/02/18 07:32:10;;;;;;;60.53;9.50;;;11.60;91.10;;;;;;5019431;28;20037;-60
2022/02/18 07:34:36;;;;;;;68.45;7.95;;;11.60;91.00;;;;;;5018939;28;20060;-63
2022/02/18 07:37:01;;;;;;;44.78;7.40;;;11.60;91.00;;;;;;5017271;28;20034;-61
2022/02/18 07:39:27;;;;;;;48.50;7.60;;;11.60;91.00;;;;;;5018722;28;20135;-61
2022/02/18 07:41:52;;;;;;;65.40;7.93;;;11.60;91.00;;;;;;5018353;28;20048;-62
2022/02/18 07:44:18;;;;;;;54.17;8.13;;;11.60;90.90;;;;;;5018811;28;20044;-62
2022/02/18 07:46:43;;;;;;;49.13;7.68;;;11.60;90.80;;;;;;5016171;28;20037;-62
2022/02/18 07:49:10;;;;;;;56.72;7.10;;;11.60;90.80;;;;;;5015048;28;20034;-61
2022/02/18 07:51:36;;;;;;;40.45;6.45;;;11.60;90.80;;;;;;5018793;28;20120;-66
2022/02/18 07:54:02;;;;;;;60.33;8.57;;;11.60;90.70;;;;;;5002373;28;20108;-60
2022/02/18 07:56:28;;;;;;;51.97;8.23;;;11.60;90.60;;;;;;5017777;28;20577;-60
2022/02/18 07:58:53;;;;;;;63.10;9.30;;;11.60;90.60;;;;;;5018912;28;20128;-62
2022/02/18 08:01:19;;;;;;;77.95;10.05;;;11.60;90.60;;;;;;5017613;28;20036;-59
2022/02/18 08:03:45;;;;;;;70.80;8.10;;;11.60;90.50;;;;;;5019625;28;20033;-61
2022/02/18 08:06:10;;;;;;;58.13;7.97;;;11.60;90.50;;;;;;5020125;28;20042;-61
2022/02/18 08:08:38;;;;;;;62.92;8.95;;;11.60;90.50;;;;;;5019557;28;20055;-61
2022/02/18 08:11:04;;;;;;;66.47;8.90;;;11.60;90.60;;;;;;5019803;28;20074;-60
2022/02/18 08:13:29;;;;;;;57.05;8.05;;;11.60;90.60;;;;;;5001089;28;20065;-59
2022/02/18 08:15:55;;;;;;;45.67;7.20;;;11.60;90.60;;;;;;5004721;28;20025;-62
2022/02/18 08:18:21;;;;;;;67.45;8.68;;;11.60;90.70;;;;;;5019338;28;20111;-63
2022/02/18 08:20:47;;;;;;;45.35;7.88;;;11.60;90.70;;;;;;5021135;28;20038;-62
2022/02/18 08:23:12;;;;;;;65.57;9.73;;;11.60;90.60;;;;;;5022925;28;20103;-59
2022/02/18 08:25:38;;;;;;;51.22;7.35;;;11.60;90.60;;;;;;5023807;28;20033;-64
2022/02/18 08:28:04;;;;;;;51.30;7.40;;;11.60;90.60;;;;;;5016878;28;20530;-62
2022/02/18 08:30:29;;;;;;;46.35;7.75;;;11.70;90.50;;;;;;5004414;28;20049;-61
2022/02/18 08:32:55;;;;;;;76.97;8.48;;;11.70;90.50;;;;;;4996018;28;20045;-63
2022/02/18 08:35:20;;;;;;;32.67;6.13;;;11.70;90.40;;;;;;5010108;28;20137;-60
2022/02/18 08:37:46;;;;;;;42.20;7.85;;;11.70;90.20;;;;;;5012812;28;20128;-59
2022/02/18 08:40:11;;;;;;;46.05;7.28;;;11.70;90.10;;;;;;5021675;28;20117;-62
2022/02/18 08:42:38;;;;;;;36.72;7.03;;;11.70;90.00;;;;;;5019356;28;20105;-60
2022/02/18 08:45:03;;;;;;;53.30;6.90;;;11.70;90.10;;;;;;5020502;28;20366;-62
2022/02/18 08:47:29;;;;;;;28.73;6.22;;;11.70;90.00;;;;;;5005474;28;20032;-62
2022/02/18 08:49:54;;;;;;;42.22;6.75;;;11.70;89.80;;;;;;5021017;28;20484;-62
2022/02/18 08:52:20;;;;;;;59.53;7.97;;;11.70;90.00;;;;;;5017115;28;20432;-62
2022/02/18 08:54:46;;;;;;;58.88;8.00;;;11.70;90.20;;;;;;5016802;28;20032;-62
2022/02/18 08:57:11;;;;;;;55.58;7.68;;;11.70;90.30;;;;;;5020599;28;20050;-59
2022/02/18 08:59:38;;;;;;;52.78;7.53;;;11.70;90.30;;;;;;5018542;28;20369;-59
2022/02/18 09:02:04;;;;;;;47.92;6.82;;;11.80;90.50;;;;;;5022303;28;20033;-62
2022/02/18 09:04:29;;;;;;;40.58;6.97;;;11.80;90.10;;;;;;5022478;28;20017;-62
2022/02/18 09:06:55;;;;;;;63.63;8.25;;;11.80;89.90;;;;;;5020335;28;20025;-62
2022/02/18 09:09:22;;;;;;;58.13;8.43;;;11.80;90.40;;;;;;5019274;28;20115;-61
2022/02/18 09:11:47;;;;;;;57.00;8.18;;;11.80;90.20;;;;;;5016084;28;20329;-61
2022/02/18 09:14:16;;;;;;;49.03;8.57;;;11.80;90.20;;;;;;5018530;28;20025;-64
2022/02/18 09:16:44;;;;;;;53.63;7.85;;;11.80;90.20;;;;;;5018777;28;20028;-64
2022/02/18 09:19:09;;;;;;;52.20;7.32;;;11.80;90.20;;;;;;5016256;28;20029;-59
2022/02/18 09:21:35;;;;;;;53.38;8.30;;;11.90;90.30;;;;;;5021158;28;20029;-63
2022/02/18 09:24:00;;;;;;;65.70;8.32;;;11.90;90.10;;;;;;5016025;28;20056;-62
2022/02/18 09:26:26;;;;;;;59.28;7.47;;;11.90;90.00;;;;;;5004360;28;20034;-60
2022/02/18 09:28:53;;;;;;;52.15;7.40;;;11.90;89.70;;;;;;5022582;28;20410;-62
2022/02/18 09:31:19;;;;;;;46.15;6.85;;;11.90;89.70;;;;;;5020703;28;20069;-63
2022/02/18 09:33:44;;;;;;;49.10;7.70;;;11.90;90.00;;;;;;5017742;28;20029;-61
2022/02/18 09:36:10;;;;;;;72.03;9.20;;;12.00;90.00;;;;;;4999052;28;20554;-62
2022/02/18 09:38:36;;;;;;;69.47;9.23;;;12.00;89.90;;;;;;5011810;28;20132;-63
2022/02/18 09:41:03;;;;;;;76.35;10.77;;;11.90;90.00;;;;;;4999917;28;20033;-61
2022/02/18 09:43:28;;;;;;;104.38;13.60;;;12.00;90.00;;;;;;5014766;28;20029;-62
2022/02/18 09:45:54;;;;;;;44.75;6.45;;;12.00;89.90;;;;;;5014957;28;20399;-60
2022/02/18 09:48:20;;;;;;;34.15;6.75;;;12.00;89.40;;;;;;5001150;28;20212;-62
2022/02/18 09:50:46;;;;;;;39.00;5.72;;;12.00;89.10;;;;;;5016914;28;20033;-62
2022/02/18 09:53:12;;;;;;;60.63;7.28;;;12.10;89.20;;;;;;5017799;28;20034;-63
2022/02/18 09:55:37;;;;;;;76.55;8.48;;;12.10;89.40;;;;;;5019374;28;20045;-62
2022/02/18 09:58:03;;;;;;;89.43;9.95;;;12.10;89.80;;;;;;5021107;28;20029;-62
2022/02/18 10:00:28;;;;;;;60.28;9.52;;;12.10;89.80;;;;;;5016274;28;20601;-62
2022/02/18 10:02:54;;;;;;;57.75;8.63;;;12.10;89.80;;;;;;5016152;28;20041;-61
2022/02/18 10:05:20;;;;;;;46.25;6.85;;;12.20;89.70;;;;;;5019223;28;20033;-60
2022/02/18 10:08:05;;;;;;;78.28;10.30;;;12.20;89.30;;;;;;5019554;28;20034;-62
2022/02/18 10:10:34;;;;;;;50.00;8.45;;;12.30;89.70;;;;;;5019159;28;20069;-64
2022/02/18 10:13:01;;;;;;;80.47;10.07;;;12.30;89.40;;;;;;5016895;28;20449;-59
2022/02/18 10:15:27;;;;;;;85.68;10.95;;;12.30;89.30;;;;;;5017326;28;20064;-62
2022/02/18 10:18:00;;;;;;;87.18;10.35;;;12.30;89.70;;;;;;5014822;28;20520;-61
2022/02/18 10:20:28;;;;;;;84.57;10.93;;;12.40;89.50;;;;;;5017341;28;20037;-60
2022/02/18 10:22:55;;;;;;;75.00;10.70;;;12.40;89.50;;;;;;5018305;28;20078;-62
2022/02/18 10:25:31;;;;;;;80.05;10.45;;;12.40;89.40;;;;;;5014670;28;20535;-60
2022/02/18 10:27:57;;;;;;;81.50;10.95;;;12.40;89.40;;;;;;5016987;28;20076;-63
2022/02/18 10:30:22;;;;;;;116.50;11.75;;;12.40;89.30;;;;;;5016781;28;20399;-64
2022/02/18 10:33:09;;;;;;;89.72;10.95;;;12.40;89.60;;;;;;5018456;28;20073;-59
2022/02/18 10:35:35;;;;;;;80.88;10.75;;;12.50;89.40;;;;;;4995986;28;20069;-60
2022/02/18 10:38:01;;;;;;;75.65;10.57;;;12.50;89.70;;;;;;5009728;28;20030;-61
2022/02/18 10:40:26;;;;;;;91.78;11.32;;;12.50;89.60;;;;;;5014752;28;20083;-61
2022/02/18 10:42:53;;;;;;;75.88;10.57;;;12.50;89.40;;;;;;5010113;28;20034;-64
2022/02/18 10:45:23;;;;;;;74.30;10.70;;;12.50;89.50;;;;;;5007997;28;20029;-61
2022/02/18 10:47:50;;;;;;;163.13;19.65;;;12.60;89.50;;;;;;5013601;28;20018;-62
2022/02/18 10:50:24;;;;;;;98.28;12.18;;;12.60;89.50;;;;;;5016336;28;20456;-62
2022/02/18 10:53:08;;;;;;;115.32;12.65;;;12.60;89.70;;;;;;5015878;28;20370;-60
2022/02/18 10:55:49;;;;;;;100.20;11.23;;;12.60;89.70;;;;;;5019725;28;20587;-60
2022/02/18 10:58:22;;;;;;;96.13;13.32;;;12.70;90.00;;;;;;5022526;28;20037;-59
2022/02/18 11:01:09;;;;;;;103.97;12.00;;;12.70;89.80;;;;;;5019961;28;20040;-62
2022/02/18 11:03:37;;;;;;;96.10;11.23;;;12.70;89.60;;;;;;5022622;28;20074;-60
2022/02/18 11:06:12;;;;;;;85.70;11.30;;;12.70;89.50;;;;;;5021844;28;20611;-63
2022/02/18 11:08:39;;;;;;;101.25;11.80;;;12.70;89.10;;;;;;5022873;28;20303;-60
2022/02/18 11:11:11;;;;;;;118.03;12.48;;;12.70;89.30;;;;;;5002746;28;20030;-61
2022/02/18 11:13:40;;;;;;;91.18;11.80;;;12.80;89.50;;;;;;5020016;28;20603;-60
2022/02/18 11:16:05;;;;;;;69.68;10.60;;;12.80;89.40;;;;;;5016851;28;20161;-60
2022/02/18 11:18:31;;;;;;;78.32;9.80;;;12.80;89.50;;;;;;5010298;28;20381;-62
2022/02/18 11:20:57;;;;;;;89.80;10.77;;;12.80;89.20;;;;;;4999546;28;20377;-62
2022/02/18 11:23:22;;;;;;;83.25;9.23;;;12.90;88.50;;;;;;4996407;28;20041;-63
2022/02/18 11:25:48;;;;;;;83.07;10.35;;;12.90;88.30;;;;;;5013797;28;20060;-59
2022/02/18 11:28:13;;;;;;;77.93;9.45;;;12.90;88.30;;;;;;5017921;28;20721;-63
2022/02/18 11:30:47;;;;;;;77.57;9.98;;;12.90;88.20;;;;;;5022266;28;20486;-64
2022/02/18 11:33:39;;;;;;;71.70;10.15;;;12.90;88.10;;;;;;5018180;28;20047;-62
2022/02/18 11:36:42;;;;;;;75.43;10.60;;;13.00;88.40;;;;;;5004238;28;20092;-60
2022/02/18 11:39:28;;;;;;;55.15;9.75;;;13.00;88.20;;;;;;5019785;28;20049;-59
2022/02/18 11:42:08;;;;;;;83.10;11.77;;;13.10;88.10;;;;;;5017231;28;20537;-60
2022/02/18 11:44:33;;;;;;;98.28;11.20;;;13.10;87.70;;;;;;4996025;28;20034;-60
2022/02/18 11:47:16;;;;;;;86.57;11.50;;;13.10;87.60;;;;;;5019077;28;20038;-63
2022/02/18 11:49:42;;;;;;;98.07;13.43;;;13.10;87.40;;;;;;5020171;28;20083;-60
2022/02/18 11:52:09;;;;;;;131.95;15.90;;;13.20;87.60;;;;;;5004591;28;20041;-59
2022/02/18 11:54:36;;;;;;;111.03;14.93;;;13.20;87.70;;;;;;5006350;28;20032;-60
2022/02/18 11:57:07;;;;;;;98.78;14.40;;;13.30;87.70;;;;;;5020872;28;20661;-59
2022/02/18 11:59:45;;;;;;;98.03;13.40;;;13.30;87.40;;;;;;5006140;28;20065;-60
2022/02/18 12:02:11;;;;;;;80.93;11.50;;;13.30;87.30;;;;;;5018780;28;20050;-63
2022/02/18 12:04:37;;;;;;;94.82;9.80;;;13.30;87.20;;;;;;5025981;28;20041;-60
2022/02/18 12:07:15;;;;;;;74.97;10.65;;;13.30;87.10;;;;;;5025582;28;20030;-60
2022/02/18 12:09:50;;;;;;;61.95;9.27;;;13.30;86.90;;;;;;5022384;28;20033;-64
2022/02/18 12:12:27;;;;;;;55.72;8.45;;;13.30;86.40;;;;;;5026870;28;20029;-61
2022/02/18 12:14:57;;;;;;;92.07;10.35;;;13.30;85.90;;;;;;4994335;28;20035;-62
2022/02/18 12:17:26;;;;;;;142.57;14.43;;;13.40;86.20;;;;;;5005082;28;20032;-61
2022/02/18 12:19:52;;;;;;;104.82;13.07;;;13.40;86.30;;;;;;5007175;28;20030;-61
2022/02/18 12:22:37;;;;;;;91.57;13.63;;;13.40;86.20;;;;;;5024735;28;20030;-59
2022/02/18 12:25:06;;;;;;;116.53;13.75;;;13.50;86.00;;;;;;5022594;28;20045;-59
2022/02/18 12:27:34;;;;;;;108.78;12.43;;;13.50;85.70;;;;;;5022545;28;20100;-59
2022/02/18 12:30:20;;;;;;;75.43;9.55;;;13.50;85.20;;;;;;5022340;28;20106;-62